Blaine, Minnesota
Current Conditions -  °F | °C
As of 12:53 AM on Friday 28 Nov 2014 (Local Time) from KANE Reporting Station
Light Snow Light Snow  
Wind Chill: -3°   Ceiling: 800
Heat Index:   Visibility: 3mi
Dew Point:   Wind: 7mph
Humidity: 85%   Direction: 140°SE
Pressure: 30.22"   Gusts: NA
Location:  45.17°N, 93.21°W
Report Text: KANE 280653Z AUTO 14006KT 3SM -SN BKN008 BKN013 OVC019 M13/M15 A3022 RMK AO2
Loading
Personal Weather Stations






























Interactive Weather Map New forecast layout! Learn more

10-Day Weather Forecast

Advertisements
Track Severe Weather on mobile